createdAt,value
2023-11-08T00:02:03.688Z,23.10
2023-11-08T00:04:30.693Z,23.10
2023-11-08T00:06:59.197Z,23.10
2023-11-08T00:09:26.225Z,23.10
2023-11-08T00:11:53.120Z,23.10
2023-11-08T00:14:20.155Z,23.10
2023-11-08T00:16:47.160Z,23.10
2023-11-08T00:19:17.472Z,23.10
2023-11-08T00:21:44.593Z,23.10
2023-11-08T00:24:11.700Z,23.10
2023-11-08T00:26:38.642Z,23.10
2023-11-08T00:29:05.578Z,23.10
2023-11-08T00:31:33.343Z,23.10
2023-11-08T00:34:00.264Z,23.10
2023-11-08T00:36:27.188Z,23.10
2023-11-08T00:38:54.207Z,23.00
2023-11-08T00:41:21.261Z,23.00
2023-11-08T00:43:48.357Z,23.00
2023-11-08T00:46:15.335Z,23.00
2023-11-08T00:48:42.599Z,23.00
2023-11-08T00:51:09.720Z,23.00
2023-11-08T00:53:36.606Z,23.00
2023-11-08T00:56:03.680Z,23.00
2023-11-08T00:58:30.688Z,23.00
2023-11-08T01:00:57.649Z,22.90
2023-11-08T01:03:24.704Z,22.90
2023-11-08T01:05:51.648Z,22.90
2023-11-08T01:08:18.702Z,22.90
2023-11-08T01:10:47.828Z,22.80
2023-11-08T01:13:14.829Z,22.80
2023-11-08T01:15:41.793Z,22.80
2023-11-08T01:18:08.824Z,22.80
2023-11-08T01:20:35.853Z,22.80
2023-11-08T01:23:03.323Z,22.80
2023-11-08T01:25:30.604Z,22.80
2023-11-08T01:27:57.498Z,22.80
2023-11-08T01:30:24.470Z,22.80
2023-11-08T01:32:51.615Z,22.80
2023-11-08T01:35:19.986Z,22.80
2023-11-08T01:37:47.048Z,22.80
2023-11-08T01:40:14.029Z,22.80
2023-11-08T01:42:41.062Z,22.80
2023-11-08T01:45:08.262Z,22.80
2023-11-08T01:47:36.671Z,22.80
2023-11-08T01:50:04.883Z,22.70
2023-11-08T01:52:32.088Z,22.70
2023-11-08T01:54:59.490Z,22.70
2023-11-08T01:57:26.916Z,22.60
2023-11-08T01:59:54.291Z,22.60
2023-11-08T02:02:21.221Z,22.50
2023-11-08T02:04:48.210Z,22.50
2023-11-08T02:07:15.207Z,22.50
2023-11-08T02:09:42.209Z,22.50
2023-11-08T02:12:09.643Z,22.50
2023-11-08T02:14:36.532Z,22.50
2023-11-08T02:17:03.438Z,22.50
2023-11-08T02:19:30.652Z,22.40
2023-11-08T02:21:57.655Z,22.40
2023-11-08T02:24:24.926Z,22.40
2023-11-08T02:26:51.970Z,22.40
2023-11-08T02:29:20.877Z,22.40
2023-11-08T02:31:52.346Z,22.40
2023-11-08T02:34:20.045Z,22.40
2023-11-08T02:36:47.260Z,22.40
2023-11-08T02:39:14.203Z,22.40
2023-11-08T02:41:41.179Z,22.40
2023-11-08T02:44:09.676Z,22.40
2023-11-08T02:46:36.681Z,22.40
2023-11-08T02:49:03.682Z,22.40
2023-11-08T02:51:30.797Z,22.40
2023-11-08T02:53:57.779Z,22.40
2023-11-08T02:56:25.892Z,22.50
2023-11-08T02:58:54.195Z,22.40
2023-11-08T03:01:22.970Z,22.40
2023-11-08T03:03:52.789Z,22.50
2023-11-08T03:06:20.826Z,22.40
2023-11-08T03:08:48.088Z,22.40
2023-11-08T03:11:15.020Z,22.40
2023-11-08T03:13:41.922Z,22.40
2023-11-08T03:16:08.829Z,22.50
2023-11-08T03:18:35.778Z,22.40
2023-11-08T03:21:02.724Z,22.40
2023-11-08T03:23:30.640Z,22.40
2023-11-08T03:25:57.563Z,22.40
2023-11-08T03:28:24.641Z,22.40
2023-11-08T03:30:51.609Z,22.40
2023-11-08T03:33:19.429Z,22.40
2023-11-08T03:35:48.174Z,22.40
2023-11-08T03:38:15.077Z,22.50
2023-11-08T03:40:42.070Z,22.60
2023-11-08T03:43:08.978Z,22.60
2023-11-08T03:45:36.266Z,22.70
2023-11-08T03:48:03.280Z,22.80
2023-11-08T03:50:30.286Z,22.90
2023-11-08T03:52:57.999Z,23.00
2023-11-08T03:55:25.035Z,23.10
2023-11-08T03:57:52.023Z,23.10
2023-11-08T04:00:19.875Z,23.20
2023-11-08T04:02:46.783Z,23.20
2023-11-08T04:05:13.833Z,23.20
2023-11-08T04:07:41.074Z,23.20
2023-11-08T04:10:08.240Z,23.20
2023-11-08T04:12:35.192Z,23.20
2023-11-08T04:15:02.099Z,23.20
2023-11-08T04:17:31.018Z,23.10
2023-11-08T04:19:57.914Z,23.10
2023-11-08T04:22:24.812Z,23.10
2023-11-08T04:24:51.765Z,23.10
2023-11-08T04:27:19.354Z,23.10
2023-11-08T04:29:46.289Z,23.10
2023-11-08T04:32:13.159Z,23.20
2023-11-08T04:34:40.186Z,23.20
2023-11-08T04:37:10.857Z,23.20
2023-11-08T04:39:38.544Z,23.30
2023-11-08T04:42:06.024Z,23.30
2023-11-08T04:44:32.966Z,23.30
2023-11-08T04:46:59.913Z,23.30
2023-11-08T04:49:28.215Z,23.30
2023-11-08T04:51:55.187Z,23.20
2023-11-08T04:54:22.664Z,23.20
2023-11-08T04:56:49.626Z,23.20
2023-11-08T04:59:16.520Z,23.10
2023-11-08T05:01:45.003Z,23.10
2023-11-08T05:04:12.031Z,23.10
2023-11-08T05:06:39.027Z,23.00
2023-11-08T05:09:05.987Z,23.10
2023-11-08T05:11:32.958Z,23.10
2023-11-08T05:13:59.935Z,23.10
2023-11-08T05:16:27.023Z,23.20
2023-11-08T05:18:54.076Z,23.20
2023-11-08T05:21:22.057Z,23.20
2023-11-08T05:23:49.093Z,23.20
2023-11-08T05:26:17.353Z,23.20
2023-11-08T05:28:44.263Z,23.20
2023-11-08T05:31:11.186Z,23.10
2023-11-08T05:33:40.611Z,23.10
2023-11-08T05:36:07.552Z,23.00
2023-11-08T05:38:34.484Z,23.00
2023-11-08T05:41:01.370Z,22.90
2023-11-08T05:43:28.578Z,22.80
2023-11-08T05:45:57.190Z,22.80
2023-11-08T05:48:24.511Z,22.80
2023-11-08T05:50:52.052Z,22.80
2023-11-08T05:53:21.485Z,22.90
2023-11-08T05:55:48.873Z,22.90
2023-11-08T05:58:17.030Z,23.00
2023-11-08T06:00:44.869Z,23.00
2023-11-08T06:03:11.941Z,23.10
2023-11-08T06:05:38.901Z,23.10
2023-11-08T06:08:05.841Z,23.20
2023-11-08T06:10:33.985Z,23.20
2023-11-08T06:13:01.147Z,23.20
2023-11-08T06:15:28.215Z,23.20
2023-11-08T06:17:55.493Z,23.20
2023-11-08T06:20:23.251Z,23.20
2023-11-08T06:22:50.640Z,23.20
2023-11-08T06:25:18.004Z,23.10
2023-11-08T06:27:45.640Z,23.10
2023-11-08T06:30:12.881Z,23.10
2023-11-08T06:32:40.037Z,23.00
2023-11-08T06:35:07.460Z,23.00
2023-11-08T06:37:34.428Z,23.00
2023-11-08T06:40:01.471Z,23.00
2023-11-08T06:42:28.631Z,23.10
2023-11-08T06:44:55.575Z,23.10
2023-11-08T06:47:22.889Z,23.10
2023-11-08T06:49:49.816Z,23.10
2023-11-08T06:52:16.804Z,23.20
2023-11-08T06:54:43.908Z,23.20
2023-11-08T06:57:10.915Z,23.20
2023-11-08T06:59:37.940Z,23.20
2023-11-08T07:02:05.523Z,23.20
2023-11-08T07:04:32.635Z,23.20
2023-11-08T07:07:01.341Z,23.10
2023-11-08T07:09:28.798Z,23.10
2023-11-08T07:11:55.961Z,23.00
2023-11-08T07:14:22.886Z,23.00
2023-11-08T07:16:50.052Z,23.00
2023-11-08T07:19:17.052Z,22.90
2023-11-08T07:21:44.262Z,22.90
2023-11-08T07:24:11.260Z,22.90
2023-11-08T07:26:38.242Z,22.90
2023-11-08T07:29:05.712Z,23.00
2023-11-08T07:31:32.937Z,23.00
2023-11-08T07:34:01.211Z,23.10
2023-11-08T07:36:30.448Z,23.10
2023-11-08T07:38:57.940Z,23.10
2023-11-08T07:41:24.891Z,23.20
2023-11-08T07:43:51.822Z,23.20
2023-11-08T07:46:18.790Z,23.20
2023-11-08T07:48:45.955Z,23.20
2023-11-08T07:51:13.974Z,23.10
2023-11-08T07:53:40.986Z,23.10
2023-11-08T07:56:09.938Z,23.10
2023-11-08T07:58:36.922Z,23.10
2023-11-08T08:01:03.923Z,23.10
2023-11-08T08:03:30.892Z,23.10
2023-11-08T08:05:58.582Z,23.10
2023-11-08T08:08:26.342Z,23.20
2023-11-08T08:10:54.582Z,23.20
2023-11-08T08:13:30.861Z,23.30
2023-11-08T08:16:00.219Z,23.40
2023-11-08T08:18:27.484Z,23.40
2023-11-08T08:20:54.841Z,23.50
2023-11-08T08:23:21.838Z,23.50
2023-11-08T08:25:48.865Z,23.60
2023-11-08T08:28:15.889Z,23.60
2023-11-08T08:30:42.919Z,23.50
2023-11-08T08:33:10.035Z,23.50
2023-11-08T08:35:37.129Z,23.50
2023-11-08T08:38:04.166Z,23.40
2023-11-08T08:40:33.892Z,23.40
2023-11-08T08:43:00.928Z,23.30
2023-11-08T08:45:29.025Z,23.20
2023-11-08T08:47:58.546Z,23.20
2023-11-08T08:50:25.608Z,23.20
2023-11-08T08:52:52.739Z,23.10
2023-11-08T08:55:20.226Z,23.10
2023-11-08T08:57:48.486Z,23.20
2023-11-08T09:00:16.370Z,23.20
2023-11-08T09:02:46.083Z,23.20
2023-11-08T09:05:14.822Z,23.30
2023-11-08T09:07:41.843Z,23.40
2023-11-08T09:10:10.136Z,23.40
2023-11-08T09:12:37.377Z,23.40
2023-11-08T09:15:07.572Z,23.40
2023-11-08T09:17:34.918Z,23.40
2023-11-08T09:20:08.535Z,23.40
2023-11-08T09:22:35.844Z,23.40
2023-11-08T09:25:05.144Z,23.30
2023-11-08T09:27:32.228Z,23.20
2023-11-08T09:29:59.168Z,23.20
2023-11-08T09:32:29.521Z,23.20
2023-11-08T09:34:56.639Z,23.10
2023-11-08T09:37:23.576Z,23.10
2023-11-08T09:39:52.091Z,23.20
2023-11-08T09:42:23.440Z,23.20
2023-11-08T09:44:50.514Z,23.20
2023-11-08T09:47:18.341Z,23.30
2023-11-08T09:49:49.826Z,23.30
2023-11-08T09:52:17.272Z,23.40
2023-11-08T09:54:47.619Z,23.40
2023-11-08T09:57:14.902Z,23.40
2023-11-08T09:59:42.140Z,23.40
2023-11-08T10:02:10.152Z,23.30
2023-11-08T10:04:44.849Z,23.20
2023-11-08T10:07:13.273Z,23.20
2023-11-08T10:09:40.549Z,23.20
2023-11-08T10:12:09.638Z,23.10
2023-11-08T10:14:38.181Z,23.00
2023-11-08T10:17:05.312Z,23.00
2023-11-08T10:19:49.105Z,23.00
2023-11-08T10:22:19.991Z,23.00
2023-11-08T10:24:57.994Z,23.10
2023-11-08T10:27:25.779Z,23.10
2023-11-08T10:29:55.705Z,23.20
2023-11-08T10:32:24.859Z,23.20
2023-11-08T10:34:52.395Z,23.30
2023-11-08T10:37:26.253Z,23.30
2023-11-08T10:40:02.608Z,23.40
2023-11-08T10:42:32.130Z,23.50
2023-11-08T10:45:09.205Z,23.50
2023-11-08T10:47:40.431Z,23.60
2023-11-08T10:50:08.287Z,23.60
2023-11-08T10:52:35.870Z,23.70
2023-11-08T10:55:05.872Z,23.70
2023-11-08T10:57:34.025Z,23.80
2023-11-08T11:00:01.927Z,23.80
2023-11-08T11:02:47.952Z,23.80
2023-11-08T11:05:17.942Z,23.90
2023-11-08T11:07:45.027Z,24.00
2023-11-08T11:10:12.723Z,24.00
2023-11-08T11:12:46.016Z,24.00
2023-11-08T11:15:36.329Z,24.10
2023-11-08T11:18:04.775Z,24.20
2023-11-08T11:20:56.829Z,24.30
2023-11-08T11:23:33.827Z,24.30
2023-11-08T11:26:01.646Z,24.40
2023-11-08T11:28:52.303Z,24.40
2023-11-08T11:31:44.281Z,24.50
2023-11-08T11:34:26.103Z,24.60
2023-11-08T11:37:02.422Z,24.60
2023-11-08T11:39:33.108Z,24.60
2023-11-08T11:42:00.446Z,24.70
2023-11-08T11:44:56.854Z,24.70
2023-11-08T11:47:29.420Z,24.60
2023-11-08T11:50:00.633Z,24.70
2023-11-08T11:52:29.336Z,24.70
2023-11-08T11:54:57.208Z,24.60
2023-11-08T11:57:27.259Z,24.60
2023-11-08T11:59:55.282Z,24.60
2023-11-08T12:02:22.716Z,24.60
2023-11-08T12:04:52.983Z,24.60
2023-11-08T12:07:20.871Z,24.50
2023-11-08T12:09:48.346Z,24.50
2023-11-08T12:12:25.682Z,24.40
2023-11-08T12:14:52.755Z,24.40
2023-11-08T12:17:19.777Z,24.30
2023-11-08T12:19:46.787Z,24.20
2023-11-08T12:22:13.742Z,24.10
2023-11-08T12:24:40.804Z,24.10
2023-11-08T12:27:07.951Z,24.00
2023-11-08T12:29:34.952Z,23.90
2023-11-08T12:32:02.563Z,23.90
2023-11-08T12:34:31.208Z,23.80
2023-11-08T12:36:58.609Z,23.70
2023-11-08T12:39:28.399Z,23.70
2023-11-08T12:41:56.555Z,23.70
2023-11-08T12:44:24.889Z,23.60
2023-11-08T12:46:57.437Z,23.50
2023-11-08T12:49:25.539Z,23.50
2023-11-08T12:51:52.671Z,23.50
2023-11-08T12:54:20.164Z,23.40
2023-11-08T12:56:47.999Z,23.40
2023-11-08T12:59:15.777Z,23.40
2023-11-08T13:01:44.883Z,23.40
2023-11-08T13:04:12.516Z,23.40
2023-11-08T13:06:39.787Z,23.40
2023-11-08T13:09:06.795Z,23.50
2023-11-08T13:11:34.540Z,23.50
2023-11-08T13:14:02.472Z,23.70
2023-11-08T13:16:29.740Z,23.70
2023-11-08T13:18:56.806Z,23.80
2023-11-08T13:21:24.489Z,23.90
2023-11-08T13:24:02.645Z,23.90
2023-11-08T13:26:34.716Z,24.00
2023-11-08T13:29:07.560Z,24.00
2023-11-08T13:31:35.077Z,24.00
2023-11-08T13:34:02.296Z,24.00
2023-11-08T13:36:29.977Z,24.00
2023-11-08T13:38:57.423Z,24.00
2023-11-08T13:41:25.111Z,23.90
2023-11-08T13:43:52.404Z,23.90
2023-11-08T13:46:19.493Z,23.90
2023-11-08T13:48:47.146Z,23.80
2023-11-08T13:51:14.314Z,23.80
2023-11-08T13:53:41.300Z,23.80
2023-11-08T13:56:08.299Z,23.70
2023-11-08T13:58:36.708Z,23.70
2023-11-08T14:01:07.560Z,23.60
2023-11-08T14:03:36.521Z,23.60
2023-11-08T14:06:04.237Z,23.50
2023-11-08T14:08:32.248Z,23.50
2023-11-08T14:10:59.445Z,23.40
2023-11-08T14:13:26.833Z,23.40
2023-11-08T14:15:54.041Z,23.40
2023-11-08T14:18:21.201Z,23.40
2023-11-08T14:20:49.252Z,23.30
2023-11-08T14:23:16.816Z,23.30
2023-11-08T14:25:43.894Z,23.30
2023-11-08T14:28:11.047Z,23.30
2023-11-08T14:30:38.237Z,23.30
2023-11-08T14:33:05.643Z,23.40
2023-11-08T14:35:35.012Z,23.40
2023-11-08T14:38:02.865Z,23.40
2023-11-08T14:40:30.145Z,23.50
2023-11-08T14:42:57.151Z,23.50
2023-11-08T14:45:24.327Z,23.60
2023-11-08T14:47:51.800Z,23.70
2023-11-08T14:50:25.945Z,23.80
2023-11-08T14:52:53.068Z,23.90
2023-11-08T14:55:20.177Z,24.00
2023-11-08T14:57:51.134Z,24.00
2023-11-08T15:00:18.496Z,24.10
2023-11-08T15:02:46.159Z,24.20
2023-11-08T15:05:13.202Z,24.20
2023-11-08T15:09:43.273Z,24.30
2023-11-08T15:10:30.618Z,24.40
2023-11-08T15:12:58.791Z,24.40
2023-11-08T15:15:26.422Z,24.40
2023-11-08T15:17:53.357Z,24.50
2023-11-08T15:20:22.399Z,24.50
2023-11-08T15:22:57.692Z,24.60
2023-11-08T15:25:25.027Z,24.60
2023-11-08T15:27:53.366Z,24.50
2023-11-08T15:30:20.555Z,24.50
2023-11-08T15:32:48.296Z,24.50
2023-11-08T15:35:15.603Z,24.40
2023-11-08T15:37:42.641Z,24.40
2023-11-08T15:40:10.169Z,24.40
2023-11-08T15:42:37.226Z,24.40
2023-11-08T15:45:08.090Z,24.40
2023-11-08T15:47:35.333Z,24.30
2023-11-08T15:50:02.370Z,24.20
2023-11-08T15:52:29.978Z,24.20
2023-11-08T15:54:57.115Z,24.20
2023-11-08T15:57:35.374Z,24.10
2023-11-08T16:00:02.482Z,24.00
2023-11-08T16:02:31.183Z,23.90
2023-11-08T16:05:06.055Z,23.90
2023-11-08T16:07:36.134Z,23.80
2023-11-08T16:10:03.146Z,23.80
2023-11-08T16:12:30.326Z,23.80
2023-11-08T16:14:59.136Z,23.70
2023-11-08T16:17:29.034Z,23.70
2023-11-08T16:19:56.927Z,23.70
2023-11-08T16:22:24.049Z,23.60
2023-11-08T16:24:52.962Z,23.60
2023-11-08T16:27:19.948Z,23.60
2023-11-08T16:29:52.305Z,23.70
2023-11-08T16:32:35.666Z,23.70
2023-11-08T16:35:09.862Z,23.70
2023-11-08T16:37:39.613Z,23.80
2023-11-08T16:40:08.451Z,23.80
2023-11-08T16:42:35.529Z,23.80
2023-11-08T16:45:02.564Z,23.90
2023-11-08T16:47:29.789Z,23.90
2023-11-08T16:49:56.884Z,24.00
2023-11-08T16:52:24.441Z,24.10
2023-11-08T16:54:51.509Z,24.10
2023-11-08T16:57:21.374Z,24.10
2023-11-08T16:59:48.353Z,24.20
2023-11-08T17:02:15.291Z,24.20
2023-11-08T17:04:42.526Z,24.20
2023-11-08T17:07:09.675Z,24.20
2023-11-08T17:09:37.218Z,24.30
2023-11-08T17:12:04.781Z,24.30
2023-11-08T17:14:31.684Z,24.40
2023-11-08T17:16:58.613Z,24.40
2023-11-08T17:19:25.653Z,24.40
2023-11-08T17:21:52.898Z,24.40
2023-11-08T17:24:19.898Z,24.40
2023-11-08T17:26:46.811Z,24.40
2023-11-08T17:29:14.432Z,24.40
2023-11-08T17:31:41.685Z,24.30
2023-11-08T17:34:08.772Z,24.30
2023-11-08T17:36:35.839Z,24.20
2023-11-08T17:39:02.754Z,24.10
2023-11-08T17:41:29.997Z,24.10
2023-11-08T17:43:57.152Z,24.00
2023-11-08T17:46:24.212Z,24.00
2023-11-08T17:48:51.375Z,24.00
2023-11-08T17:51:21.096Z,24.00
2023-11-08T17:53:48.072Z,24.10
2023-11-08T17:56:15.012Z,24.10
2023-11-08T17:58:42.033Z,24.20
2023-11-08T18:01:10.080Z,24.20
2023-11-08T18:03:40.619Z,24.30
2023-11-08T18:06:09.360Z,24.30
2023-11-08T18:08:36.857Z,24.30
2023-11-08T18:11:03.923Z,24.30
2023-11-08T18:13:34.608Z,24.30
2023-11-08T18:16:01.619Z,24.30
2023-11-08T18:18:29.480Z,24.30
2023-11-08T18:20:58.777Z,24.30
2023-11-08T18:23:25.666Z,24.30
2023-11-08T18:25:52.668Z,24.20
2023-11-08T18:28:19.679Z,24.20
2023-11-08T18:30:46.747Z,24.20
2023-11-08T18:33:16.766Z,24.20
2023-11-08T18:35:43.769Z,24.20
2023-11-08T18:38:10.718Z,24.20
2023-11-08T18:40:37.629Z,24.20
2023-11-08T18:43:04.583Z,24.20
2023-11-08T18:45:31.597Z,24.20
2023-11-08T18:48:03.264Z,24.30
2023-11-08T18:50:30.324Z,24.30
2023-11-08T18:52:57.310Z,24.30
2023-11-08T18:55:26.364Z,24.30
2023-11-08T18:57:53.554Z,24.30
2023-11-08T19:00:20.572Z,24.20
2023-11-08T19:02:52.508Z,24.20
2023-11-08T19:05:20.744Z,24.10
2023-11-08T19:07:48.577Z,24.00
2023-11-08T19:10:15.565Z,24.00
2023-11-08T19:12:44.154Z,23.90
2023-11-08T19:15:13.029Z,23.90
2023-11-08T19:17:41.367Z,23.80
2023-11-08T19:20:10.710Z,23.80
2023-11-08T19:22:37.872Z,23.70
2023-11-08T19:25:10.406Z,23.70
2023-11-08T19:27:40.651Z,23.60
2023-11-08T19:30:10.658Z,23.60
2023-11-08T19:32:37.695Z,23.60
2023-11-08T19:35:08.500Z,23.50
2023-11-08T19:37:38.461Z,23.50
2023-11-08T19:40:10.216Z,23.50
2023-11-08T19:42:37.650Z,23.40
2023-11-08T19:45:05.053Z,23.40
2023-11-08T19:47:32.346Z,23.40
2023-11-08T19:49:59.558Z,23.40
2023-11-08T19:52:26.517Z,23.40
2023-11-08T19:54:53.490Z,23.40
2023-11-08T19:57:23.571Z,23.40
2023-11-08T19:59:52.329Z,23.40
2023-11-08T20:02:19.219Z,23.50
2023-11-08T20:04:46.729Z,23.50
2023-11-08T20:07:13.773Z,23.60
2023-11-08T20:09:40.741Z,23.70
2023-11-08T20:12:07.820Z,23.70
2023-11-08T20:14:34.737Z,23.70
2023-11-08T20:17:01.984Z,23.60
2023-11-08T20:19:29.796Z,23.60
2023-11-08T20:21:56.776Z,23.60
2023-11-08T20:24:23.804Z,23.50
2023-11-08T20:26:50.705Z,23.50
2023-11-08T20:29:17.592Z,23.50
2023-11-08T20:31:45.975Z,23.50
2023-11-08T20:34:13.307Z,23.40
2023-11-08T20:36:40.360Z,23.40
2023-11-08T20:39:07.941Z,23.40
2023-11-08T20:41:34.893Z,23.40
2023-11-08T20:44:02.284Z,23.40
2023-11-08T20:46:29.653Z,23.30
2023-11-08T20:48:57.213Z,23.30
2023-11-08T20:51:25.730Z,23.20
2023-11-08T20:53:53.408Z,23.20
2023-11-08T20:56:20.936Z,23.10
2023-11-08T20:58:48.322Z,23.10
2023-11-08T21:01:15.695Z,23.10
2023-11-08T21:03:43.545Z,23.00
2023-11-08T21:06:10.874Z,23.00
2023-11-08T21:08:37.803Z,22.90
2023-11-08T21:11:05.219Z,22.90
2023-11-08T21:13:32.105Z,22.90
2023-11-08T21:15:59.060Z,22.90
2023-11-08T21:18:25.990Z,22.90
2023-11-08T21:20:53.052Z,22.80
2023-11-08T21:23:19.992Z,22.80
2023-11-08T21:25:47.043Z,22.80
2023-11-08T21:28:13.969Z,22.80
2023-11-08T21:30:41.655Z,22.80
2023-11-08T21:33:08.705Z,22.80
2023-11-08T21:35:35.709Z,22.80
2023-11-08T21:38:02.627Z,22.80
2023-11-08T21:40:30.037Z,22.80
2023-11-08T21:42:57.067Z,22.80
2023-11-08T21:45:24.000Z,22.80
2023-11-08T21:47:51.020Z,22.80
2023-11-08T21:50:17.968Z,22.80
2023-11-08T21:52:44.932Z,22.80
2023-11-08T21:55:14.523Z,22.80
2023-11-08T21:57:41.952Z,22.80
2023-11-08T22:00:11.119Z,22.80
2023-11-08T22:02:38.921Z,22.80
2023-11-08T22:05:09.385Z,22.80
2023-11-08T22:07:36.501Z,22.80
2023-11-08T22:10:03.539Z,22.70
2023-11-08T22:12:30.730Z,22.80
2023-11-08T22:15:00.199Z,22.70
2023-11-08T22:17:27.313Z,22.70
2023-11-08T22:19:54.381Z,22.70
2023-11-08T22:22:21.358Z,22.70
2023-11-08T22:24:48.469Z,22.70
2023-11-08T22:27:15.408Z,22.70
2023-11-08T22:29:42.589Z,22.70
2023-11-08T22:32:09.542Z,22.70
2023-11-08T22:34:36.451Z,22.70
2023-11-08T22:37:03.430Z,22.60
2023-11-08T22:39:31.671Z,22.60
2023-11-08T22:41:58.611Z,22.60
2023-11-08T22:44:25.556Z,22.50
2023-11-08T22:46:52.594Z,22.40
2023-11-08T22:49:19.601Z,22.40
2023-11-08T22:51:46.609Z,22.30
2023-11-08T22:54:13.545Z,22.30
2023-11-08T22:56:40.462Z,22.30
2023-11-08T22:59:07.388Z,22.30
2023-11-08T23:01:34.499Z,22.20
2023-11-08T23:04:04.769Z,22.20
2023-11-08T23:06:32.408Z,22.20
2023-11-08T23:09:01.585Z,22.20
2023-11-08T23:11:31.343Z,22.20
2023-11-08T23:13:58.747Z,22.20
2023-11-08T23:16:25.834Z,22.20
2023-11-08T23:18:55.906Z,22.20
2023-11-08T23:21:23.161Z,22.20
2023-11-08T23:23:51.855Z,22.20
2023-11-08T23:26:19.004Z,22.20
2023-11-08T23:28:46.113Z,22.20
2023-11-08T23:31:13.457Z,22.20
2023-11-08T23:33:40.538Z,22.20
2023-11-08T23:36:07.706Z,22.20
2023-11-08T23:38:34.624Z,22.20
2023-11-08T23:41:01.653Z,22.20
2023-11-08T23:43:28.888Z,22.20
2023-11-08T23:45:55.848Z,22.20
2023-11-08T23:48:22.928Z,22.20
2023-11-08T23:50:50.026Z,22.20
2023-11-08T23:53:17.064Z,22.20
2023-11-08T23:55:44.096Z,22.20
2023-11-08T23:58:11.732Z,22.20
